La Joya, New Mexico
Current Conditions -  °F | °C
As of 4:15 PM on Tuesday 25 Nov 2014 (Local Time) from KE80 Reporting Station
Clear Clear  
Wind Chill: 45°   Ceiling: Unl
Heat Index: 48°   Visibility: 10mi
Dew Point:   Wind: 6mph
Humidity: 17%   Direction: 80°E
Pressure: 30.26"   Gusts: NA
Location:  34.35°N, 106.84°W
Report Text: KE80 252315Z AUTO 08005KT 10SM CLR 09/M15 A3026 RMK AO2 T00881155
Loading
Personal Weather Stations






























Interactive Weather Map New forecast layout! Learn more

10-Day Weather Forecast

Advertisements
Track Severe Weather on mobile